sensor_id;sensor_type;location;lat;lon;timestamp;temperature;humidity
21417;DHT22;10869;52.238;10.716;2022-10-16T03:34:03;13.90;99.90
21417;DHT22;10869;52.238;10.716;2022-10-16T03:36:29;13.90;99.90
21417;DHT22;10869;52.238;10.716;2022-10-16T03:38:55;13.90;99.90
21417;DHT22;10869;52.238;10.716;2022-10-16T03:41:21;13.80;99.90
21417;DHT22;10869;52.238;10.716;2022-10-16T03:43:46;13.90;99.90
21417;DHT22;10869;52.238;10.716;2022-10-16T03:46:12;13.90;99.90
21417;DHT22;10869;52.238;10.716;2022-10-16T03:48:38;13.80;99.90
21417;DHT22;10869;52.238;10.716;2022-10-16T03:51:05;13.80;99.90
21417;DHT22;10869;52.238;10.716;2022-10-16T03:53:31;13.80;99.90
21417;DHT22;10869;52.238;10.716;2022-10-16T03:55:57;13.80;99.90
21417;DHT22;10869;52.238;10.716;2022-10-16T03:58:23;13.80;99.90
21417;DHT22;10869;52.238;10.716;2022-10-16T04:00:49;13.80;99.90
21417;DHT22;10869;52.238;10.716;2022-10-16T04:03:15;13.80;99.90
21417;DHT22;10869;52.238;10.716;2022-10-16T04:05:41;13.80;99.90
21417;DHT22;10869;52.238;10.716;2022-10-16T04:08:07;13.80;99.90
21417;DHT22;10869;52.238;10.716;2022-10-16T04:10:33;13.80;99.90
21417;DHT22;10869;52.238;10.716;2022-10-16T04:12:59;13.80;99.90
21417;DHT22;10869;52.238;10.716;2022-10-16T04:15:25;13.80;99.90
21417;DHT22;10869;52.238;10.716;2022-10-16T04:17:51;13.70;99.90
21417;DHT22;10869;52.238;10.716;2022-10-16T04:20:17;13.70;99.90
21417;DHT22;10869;52.238;10.716;2022-10-16T04:22:43;13.70;99.90
21417;DHT22;10869;52.238;10.716;2022-10-16T04:25:10;13.60;99.90
21417;DHT22;10869;52.238;10.716;2022-10-16T04:27:37;13.60;99.90
21417;DHT22;10869;52.238;10.716;2022-10-16T04:30:04;13.60;99.90
21417;DHT22;10869;52.238;10.716;2022-10-16T04:32:30;13.60;99.90
21417;DHT22;10869;52.238;10.716;2022-10-16T04:34:55;13.60;99.90
21417;DHT22;10869;52.238;10.716;2022-10-16T04:37:25;13.60;99.90
21417;DHT22;10869;52.238;10.716;2022-10-16T04:39:52;13.60;99.90
21417;DHT22;10869;52.238;10.716;2022-10-16T04:42:18;13.70;99.90
21417;DHT22;10869;52.238;10.716;2022-10-16T04:44:44;13.70;99.90
21417;DHT22;10869;52.238;10.716;2022-10-16T04:47:10;13.70;99.90
21417;DHT22;10869;52.238;10.716;2022-10-16T04:49:36;13.70;99.90
21417;DHT22;10869;52.238;10.716;2022-10-16T04:52:02;13.80;99.90
21417;DHT22;10869;52.238;10.716;2022-10-16T04:54:28;13.80;99.90
21417;DHT22;10869;52.238;10.716;2022-10-16T04:56:54;13.80;99.90
21417;DHT22;10869;52.238;10.716;2022-10-16T04:59:20;13.80;99.90
21417;DHT22;10869;52.238;10.716;2022-10-16T05:01:46;13.80;99.90
21417;DHT22;10869;52.238;10.716;2022-10-16T05:04:12;13.80;99.90
21417;DHT22;10869;52.238;10.716;2022-10-16T05:06:40;13.90;99.90
21417;DHT22;10869;52.238;10.716;2022-10-16T05:09:06;13.90;99.90
21417;DHT22;10869;52.238;10.716;2022-10-16T05:11:32;14.00;99.90
21417;DHT22;10869;52.238;10.716;2022-10-16T05:13:58;14.00;99.90
21417;DHT22;10869;52.238;10.716;2022-10-16T05:16:24;14.00;99.90
21417;DHT22;10869;52.238;10.716;2022-10-16T05:18:54;14.00;99.90
21417;DHT22;10869;52.238;10.716;2022-10-16T05:21:20;14.00;99.90
21417;DHT22;10869;52.238;10.716;2022-10-16T05:23:46;14.00;99.90
21417;DHT22;10869;52.238;10.716;2022-10-16T05:26:12;14.00;99.90
21417;DHT22;10869;52.238;10.716;2022-10-16T05:28:38;14.00;99.90
21417;DHT22;10869;52.238;10.716;2022-10-16T05:31:08;14.00;99.90
21417;DHT22;10869;52.238;10.716;2022-10-16T05:33:34;14.00;99.90
21417;DHT22;10869;52.238;10.716;2022-10-16T05:36:05;14.10;99.90
21417;DHT22;10869;52.238;10.716;2022-10-16T05:38:33;14.00;99.90
21417;DHT22;10869;52.238;10.716;2022-10-16T05:40:59;14.10;99.90
21417;DHT22;10869;52.238;10.716;2022-10-16T05:43:24;14.10;99.90
21417;DHT22;10869;52.238;10.716;2022-10-16T05:46:03;14.10;99.90
21417;DHT22;10869;52.238;10.716;2022-10-16T05:48:29;14.10;99.90
21417;DHT22;10869;52.238;10.716;2022-10-16T05:51:02;14.10;99.90
21417;DHT22;10869;52.238;10.716;2022-10-16T05:53:30;14.10;99.90
21417;DHT22;10869;52.238;10.716;2022-10-16T05:55:57;14.20;99.90
21417;DHT22;10869;52.238;10.716;2022-10-16T05:58:24;14.20;99.90
21417;DHT22;10869;52.238;10.716;2022-10-16T06:01:01;14.20;99.90
21417;DHT22;10869;52.238;10.716;2022-10-16T06:03:27;14.20;99.90
21417;DHT22;10869;52.238;10.716;2022-10-16T06:05:53;14.30;99.90
21417;DHT22;10869;52.238;10.716;2022-10-16T06:08:21;14.30;99.90
21417;DHT22;10869;52.238;10.716;2022-10-16T06:10:47;14.30;99.90
21417;DHT22;10869;52.238;10.716;2022-10-16T06:13:14;14.30;99.90
21417;DHT22;10869;52.238;10.716;2022-10-16T06:15:43;14.30;99.90
21417;DHT22;10869;52.238;10.716;2022-10-16T06:18:12;14.30;99.90
21417;DHT22;10869;52.238;10.716;2022-10-16T06:20:38;14.30;99.90
21417;DHT22;10869;52.238;10.716;2022-10-16T06:23:04;14.30;99.90
21417;DHT22;10869;52.238;10.716;2022-10-16T06:25:32;14.30;99.90
21417;DHT22;10869;52.238;10.716;2022-10-16T06:28:01;14.30;99.90
21417;DHT22;10869;52.238;10.716;2022-10-16T06:30:26;14.30;99.90
21417;DHT22;10869;52.238;10.716;2022-10-16T06:32:53;14.40;99.90
21417;DHT22;10869;52.238;10.716;2022-10-16T06:35:19;14.40;99.90
21417;DHT22;10869;52.238;10.716;2022-10-16T06:37:45;14.40;99.90
21417;DHT22;10869;52.238;10.716;2022-10-16T06:40:11;14.50;99.90
21417;DHT22;10869;52.238;10.716;2022-10-16T06:46:24;14.60;99.90
21417;DHT22;10869;52.238;10.716;2022-10-16T06:51:54;14.70;99.90
21417;DHT22;10869;52.238;10.716;2022-10-16T06:54:20;14.60;99.90
21417;DHT22;10869;52.238;10.716;2022-10-16T06:56:46;14.60;99.90
21417;DHT22;10869;52.238;10.716;2022-10-16T06:59:11;14.60;99.90
21417;DHT22;10869;52.238;10.716;2022-10-16T07:05:00;14.60;99.90
21417;DHT22;10869;52.238;10.716;2022-10-16T07:07:27;14.50;99.90
21417;DHT22;10869;52.238;10.716;2022-10-16T07:09:52;14.50;99.90
21417;DHT22;10869;52.238;10.716;2022-10-16T07:12:18;14.40;99.90
21417;DHT22;10869;52.238;10.716;2022-10-16T07:14:44;14.30;99.90
21417;DHT22;10869;52.238;10.716;2022-10-16T07:17:14;14.40;99.90
21417;DHT22;10869;52.238;10.716;2022-10-16T07:23:02;14.60;99.90
21417;DHT22;10869;52.238;10.716;2022-10-16T07:25:28;14.70;99.90
21417;DHT22;10869;52.238;10.716;2022-10-16T07:27:54;14.80;99.90
21417;DHT22;10869;52.238;10.716;2022-10-16T07:30:21;14.70;99.90
21417;DHT22;10869;52.238;10.716;2022-10-16T07:32:47;14.70;99.90
21417;DHT22;10869;52.238;10.716;2022-10-16T07:35:14;14.90;99.90
21417;DHT22;10869;52.238;10.716;2022-10-16T07:37:43;15.00;99.90
21417;DHT22;10869;52.238;10.716;2022-10-16T07:40:09;15.00;99.90
21417;DHT22;10869;52.238;10.716;2022-10-16T07:45:58;15.30;99.90
21417;DHT22;10869;52.238;10.716;2022-10-16T07:48:31;15.50;99.90
21417;DHT22;10869;52.238;10.716;2022-10-16T07:54:19;15.60;99.90
21417;DHT22;10869;52.238;10.716;2022-10-16T08:00:08;15.70;99.90
21417;DHT22;10869;52.238;10.716;2022-10-16T08:06:02;15.90;99.90
21417;DHT22;10869;52.238;10.716;2022-10-16T08:08:46;15.90;99.90
21417;DHT22;10869;52.238;10.716;2022-10-16T08:11:14;15.80;99.90
21417;DHT22;10869;52.238;10.716;2022-10-16T08:13:41;15.80;99.90
21417;DHT22;10869;52.238;10.716;2022-10-16T08:16:07;15.80;99.90
21417;DHT22;10869;52.238;10.716;2022-10-16T08:18:41;15.80;99.90
21417;DHT22;10869;52.238;10.716;2022-10-16T08:21:12;15.70;99.90
21417;DHT22;10869;52.238;10.716;2022-10-16T08:23:38;15.70;99.90
21417;DHT22;10869;52.238;10.716;2022-10-16T08:26:06;15.80;99.90
21417;DHT22;10869;52.238;10.716;2022-10-16T08:28:34;16.20;99.90
21417;DHT22;10869;52.238;10.716;2022-10-16T08:31:14;16.20;99.90
21417;DHT22;10869;52.238;10.716;2022-10-16T08:33:49;16.40;99.90
21417;DHT22;10869;52.238;10.716;2022-10-16T08:36:16;16.60;99.90
21417;DHT22;10869;52.238;10.716;2022-10-16T08:38:42;16.80;99.90
21417;DHT22;10869;52.238;10.716;2022-10-16T08:50:00;17.00;99.90
21417;DHT22;10869;52.238;10.716;2022-10-16T08:52:34;17.30;99.90
21417;DHT22;10869;52.238;10.716;2022-10-16T08:55:28;17.60;99.90
21417;DHT22;10869;52.238;10.716;2022-10-16T08:58:14;17.90;99.90
21417;DHT22;10869;52.238;10.716;2022-10-16T09:00:54;17.70;99.90
21417;DHT22;10869;52.238;10.716;2022-10-16T09:35:32;17.10;99.90
21417;DHT22;10869;52.238;10.716;2022-10-16T09:38:00;17.00;99.90
21417;DHT22;10869;52.238;10.716;2022-10-16T09:40:30;17.00;99.90
21417;DHT22;10869;52.238;10.716;2022-10-16T09:45:36;17.30;99.90
21417;DHT22;10869;52.238;10.716;2022-10-16T09:48:11;17.30;99.90
21417;DHT22;10869;52.238;10.716;2022-10-16T09:50:38;17.30;99.90
21417;DHT22;10869;52.238;10.716;2022-10-16T09:53:15;17.30;99.90
21417;DHT22;10869;52.238;10.716;2022-10-16T09:55:52;17.60;99.90
21417;DHT22;10869;52.238;10.716;2022-10-16T09:58:20;17.90;99.90
21417;DHT22;10869;52.238;10.716;2022-10-16T10:00:54;17.90;99.90
21417;DHT22;10869;52.238;10.716;2022-10-16T10:03:49;17.70;99.90
21417;DHT22;10869;52.238;10.716;2022-10-16T10:08:58;17.70;99.90
21417;DHT22;10869;52.238;10.716;2022-10-16T10:19:54;18.40;99.90
21417;DHT22;10869;52.238;10.716;2022-10-16T10:25:32;18.80;99.90
21417;DHT22;10869;52.238;10.716;2022-10-16T10:31:21;19.00;99.90
21417;DHT22;10869;52.238;10.716;2022-10-16T10:37:19;19.30;99.90
21417;DHT22;10869;52.238;10.716;2022-10-16T10:39:55;19.30;99.90
21417;DHT22;10869;52.238;10.716;2022-10-16T11:11:06;19.10;99.90
21417;DHT22;10869;52.238;10.716;2022-10-16T11:16:39;19.40;99.90
21417;DHT22;10869;52.238;10.716;2022-10-16T11:25:30;20.10;99.90
21417;DHT22;10869;52.238;10.716;2022-10-16T11:28:14;20.60;99.90
21417;DHT22;10869;52.238;10.716;2022-10-16T11:33:43;19.60;99.90
21417;DHT22;10869;52.238;10.716;2022-10-16T11:36:38;19.20;99.90
21417;DHT22;10869;52.238;10.716;2022-10-16T11:42:34;19.00;99.90
21417;DHT22;10869;52.238;10.716;2022-10-16T11:47:54;18.30;99.90
21417;DHT22;10869;52.238;10.716;2022-10-16T11:50:54;18.10;99.90
21417;DHT22;10869;52.238;10.716;2022-10-16T11:56:13;17.80;99.90
21417;DHT22;10869;52.238;10.716;2022-10-16T12:08:10;18.90;99.90
21417;DHT22;10869;52.238;10.716;2022-10-16T12:16:51;18.90;99.90
21417;DHT22;10869;52.238;10.716;2022-10-16T12:19:18;18.80;99.90
21417;DHT22;10869;52.238;10.716;2022-10-16T12:21:51;19.20;99.90
21417;DHT22;10869;52.238;10.716;2022-10-16T12:24:34;19.80;99.90
21417;DHT22;10869;52.238;10.716;2022-10-16T12:27:00;20.30;99.90
21417;DHT22;10869;52.238;10.716;2022-10-16T12:31:55;20.80;99.90
21417;DHT22;10869;52.238;10.716;2022-10-16T12:34:28;20.90;99.90
21417;DHT22;10869;52.238;10.716;2022-10-16T12:36:55;21.10;99.90
21417;DHT22;10869;52.238;10.716;2022-10-16T12:39:32;20.80;99.90
21417;DHT22;10869;52.238;10.716;2022-10-16T12:45:31;20.90;99.90
21417;DHT22;10869;52.238;10.716;2022-10-16T12:47:58;20.50;99.90
21417;DHT22;10869;52.238;10.716;2022-10-16T12:54:01;20.00;99.90
21417;DHT22;10869;52.238;10.716;2022-10-16T13:18:53;19.90;99.90
21417;DHT22;10869;52.238;10.716;2022-10-16T13:21:43;19.60;99.90
21417;DHT22;10869;52.238;10.716;2022-10-16T13:30:25;19.20;99.90
21417;DHT22;10869;52.238;10.716;2022-10-16T13:33:25;19.10;99.90
21417;DHT22;10869;52.238;10.716;2022-10-16T13:47:24;19.70;99.90
21417;DHT22;10869;52.238;10.716;2022-10-16T13:50:11;19.70;99.90
21417;DHT22;10869;52.238;10.716;2022-10-16T13:53:35;19.70;99.90
21417;DHT22;10869;52.238;10.716;2022-10-16T13:56:14;19.50;99.90
21417;DHT22;10869;52.238;10.716;2022-10-16T14:01:39;19.20;99.90
21417;DHT22;10869;52.238;10.716;2022-10-16T14:09:23;19.10;99.90
21417;DHT22;10869;52.238;10.716;2022-10-16T14:12:06;19.20;99.90
21417;DHT22;10869;52.238;10.716;2022-10-16T14:14:57;19.10;99.90
21417;DHT22;10869;52.238;10.716;2022-10-16T14:17:26;19.00;99.90
21417;DHT22;10869;52.238;10.716;2022-10-16T14:19:58;19.00;99.90
21417;DHT22;10869;52.238;10.716;2022-10-16T14:22:38;19.20;99.90
21417;DHT22;10869;52.238;10.716;2022-10-16T14:27:44;19.40;99.90
21417;DHT22;10869;52.238;10.716;2022-10-16T14:30:19;19.40;99.90
21417;DHT22;10869;52.238;10.716;2022-10-16T14:38:37;19.60;99.90
21417;DHT22;10869;52.238;10.716;2022-10-16T14:41:04;19.60;99.90
21417;DHT22;10869;52.238;10.716;2022-10-16T14:43:49;19.50;99.90
21417;DHT22;10869;52.238;10.716;2022-10-16T14:51:42;19.30;99.90
21417;DHT22;10869;52.238;10.716;2022-10-16T14:54:10;19.30;99.90
21417;DHT22;10869;52.238;10.716;2022-10-16T14:56:57;19.20;99.90
21417;DHT22;10869;52.238;10.716;2022-10-16T14:59:38;19.30;99.90
21417;DHT22;10869;52.238;10.716;2022-10-16T15:04:43;19.20;99.90
21417;DHT22;10869;52.238;10.716;2022-10-16T15:07:08;19.00;99.90
21417;DHT22;10869;52.238;10.716;2022-10-16T15:09:34;19.00;99.90
21417;DHT22;10869;52.238;10.716;2022-10-16T15:12:00;19.00;99.90
21417;DHT22;10869;52.238;10.716;2022-10-16T15:14:26;18.90;99.90
21417;DHT22;10869;52.238;10.716;2022-10-16T15:20:25;18.80;99.90
21417;DHT22;10869;52.238;10.716;2022-10-16T15:23:20;18.70;99.90
21417;DHT22;10869;52.238;10.716;2022-10-16T15:25:55;18.60;99.90
21417;DHT22;10869;52.238;10.716;2022-10-16T15:28:23;18.50;99.90
21417;DHT22;10869;52.238;10.716;2022-10-16T15:34:11;18.30;99.90
21417;DHT22;10869;52.238;10.716;2022-10-16T15:36:40;18.20;99.90
21417;DHT22;10869;52.238;10.716;2022-10-16T15:39:17;18.00;99.90
21417;DHT22;10869;52.238;10.716;2022-10-16T15:41:44;17.90;99.90
21417;DHT22;10869;52.238;10.716;2022-10-16T15:47:33;17.80;99.90
21417;DHT22;10869;52.238;10.716;2022-10-16T15:49:58;17.70;99.90
21417;DHT22;10869;52.238;10.716;2022-10-16T15:52:24;17.50;99.90
21417;DHT22;10869;52.238;10.716;2022-10-16T15:54:50;17.40;99.90
21417;DHT22;10869;52.238;10.716;2022-10-16T15:57:16;17.30;99.90
21417;DHT22;10869;52.238;10.716;2022-10-16T15:59:41;17.20;99.90
21417;DHT22;10869;52.238;10.716;2022-10-16T16:02:13;17.10;99.90
21417;DHT22;10869;52.238;10.716;2022-10-16T16:08:04;16.80;99.90
21417;DHT22;10869;52.238;10.716;2022-10-16T16:10:31;16.60;99.90
21417;DHT22;10869;52.238;10.716;2022-10-16T16:16:21;16.40;99.90
21417;DHT22;10869;52.238;10.716;2022-10-16T16:18:48;16.30;99.90
21417;DHT22;10869;52.238;10.716;2022-10-16T16:24:39;16.10;99.90
21417;DHT22;10869;52.238;10.716;2022-10-16T16:30:42;15.80;99.90
21417;DHT22;10869;52.238;10.716;2022-10-16T17:14:50;14.90;99.90
21417;DHT22;10869;52.238;10.716;2022-10-16T18:03:58;14.90;99.90
21417;DHT22;10869;52.238;10.716;2022-10-16T18:06:25;15.00;99.90
21417;DHT22;10869;52.238;10.716;2022-10-16T18:08:52;15.00;99.90
21417;DHT22;10869;52.238;10.716;2022-10-16T18:11:19;15.00;99.90
21417;DHT22;10869;52.238;10.716;2022-10-16T18:13:45;15.00;99.90
21417;DHT22;10869;52.238;10.716;2022-10-16T18:16:13;14.90;99.90
21417;DHT22;10869;52.238;10.716;2022-10-16T18:18:40;14.90;99.90
21417;DHT22;10869;52.238;10.716;2022-10-16T18:21:07;14.90;99.90
21417;DHT22;10869;52.238;10.716;2022-10-16T18:23:35;14.80;99.90
21417;DHT22;10869;52.238;10.716;2022-10-16T18:26:03;14.70;99.90
21417;DHT22;10869;52.238;10.716;2022-10-16T18:28:29;14.60;99.90
21417;DHT22;10869;52.238;10.716;2022-10-16T18:34:17;14.50;99.90
21417;DHT22;10869;52.238;10.716;2022-10-16T18:40:05;14.40;99.90
21417;DHT22;10869;52.238;10.716;2022-10-16T18:42:31;14.30;99.90
21417;DHT22;10869;52.238;10.716;2022-10-16T18:44:56;14.30;99.90
21417;DHT22;10869;52.238;10.716;2022-10-16T18:47:22;14.30;99.90
21417;DHT22;10869;52.238;10.716;2022-10-16T18:53:10;14.20;99.90
21417;DHT22;10869;52.238;10.716;2022-10-16T18:59:00;14.20;99.90
21417;DHT22;10869;52.238;10.716;2022-10-16T19:04:48;14.10;99.90
21417;DHT22;10869;52.238;10.716;2022-10-16T19:07:14;14.10;99.90
21417;DHT22;10869;52.238;10.716;2022-10-16T19:09:41;14.10;99.90
21417;DHT22;10869;52.238;10.716;2022-10-16T19:12:07;14.00;99.90
21417;DHT22;10869;52.238;10.716;2022-10-16T19:14:33;14.00;99.90
21417;DHT22;10869;52.238;10.716;2022-10-16T19:16:58;14.00;99.90
21417;DHT22;10869;52.238;10.716;2022-10-16T19:19:24;14.00;99.90
21417;DHT22;10869;52.238;10.716;2022-10-16T19:21:51;14.00;99.90
21417;DHT22;10869;52.238;10.716;2022-10-16T19:24:25;14.10;99.90
21417;DHT22;10869;52.238;10.716;2022-10-16T19:26:51;14.10;99.90
21417;DHT22;10869;52.238;10.716;2022-10-16T19:29:17;14.10;99.90
21417;DHT22;10869;52.238;10.716;2022-10-16T19:31:43;14.10;99.90
21417;DHT22;10869;52.238;10.716;2022-10-16T19:34:09;14.00;99.90
21417;DHT22;10869;52.238;10.716;2022-10-16T19:36:37;14.00;99.90
21417;DHT22;10869;52.238;10.716;2022-10-16T19:39:09;14.00;99.90
21417;DHT22;10869;52.238;10.716;2022-10-16T19:41:36;14.00;99.90
21417;DHT22;10869;52.238;10.716;2022-10-16T19:44:05;14.00;99.90
21417;DHT22;10869;52.238;10.716;2022-10-16T19:46:31;13.90;99.90
21417;DHT22;10869;52.238;10.716;2022-10-16T19:49:01;13.90;99.90
21417;DHT22;10869;52.238;10.716;2022-10-16T19:51:27;13.90;99.90
21417;DHT22;10869;52.238;10.716;2022-10-16T19:53:55;14.00;99.90
21417;DHT22;10869;52.238;10.716;2022-10-16T19:56:23;14.00;99.90
21417;DHT22;10869;52.238;10.716;2022-10-16T19:58:50;13.90;99.90
21417;DHT22;10869;52.238;10.716;2022-10-16T20:04:38;13.90;99.90
21417;DHT22;10869;52.238;10.716;2022-10-16T20:07:04;13.90;99.90
21417;DHT22;10869;52.238;10.716;2022-10-16T20:09:32;13.90;99.90
21417;DHT22;10869;52.238;10.716;2022-10-16T20:11:58;14.00;99.90
21417;DHT22;10869;52.238;10.716;2022-10-16T20:14:24;14.00;99.90
21417;DHT22;10869;52.238;10.716;2022-10-16T20:16:50;14.10;99.90
21417;DHT22;10869;52.238;10.716;2022-10-16T20:19:20;14.20;99.90
21417;DHT22;10869;52.238;10.716;2022-10-16T20:21:46;14.40;99.90
21417;DHT22;10869;52.238;10.716;2022-10-16T20:24:12;14.50;99.90
21417;DHT22;10869;52.238;10.716;2022-10-16T20:26:38;14.70;99.90
21417;DHT22;10869;52.238;10.716;2022-10-16T20:29:04;14.80;99.90
21417;DHT22;10869;52.238;10.716;2022-10-16T20:31:31;14.90;99.90
21417;DHT22;10869;52.238;10.716;2022-10-16T20:34:02;15.00;99.90
21417;DHT22;10869;52.238;10.716;2022-10-16T20:36:28;15.00;99.90
21417;DHT22;10869;52.238;10.716;2022-10-16T20:38:58;15.10;99.90
21417;DHT22;10869;52.238;10.716;2022-10-16T20:41:27;15.20;99.90
21417;DHT22;10869;52.238;10.716;2022-10-16T20:43:53;15.30;99.90
21417;DHT22;10869;52.238;10.716;2022-10-16T20:46:23;15.40;99.90
21417;DHT22;10869;52.238;10.716;2022-10-16T20:48:49;15.50;99.90
21417;DHT22;10869;52.238;10.716;2022-10-16T20:51:24;15.50;99.90
21417;DHT22;10869;52.238;10.716;2022-10-16T20:53:56;15.60;99.90
21417;DHT22;10869;52.238;10.716;2022-10-16T20:56:23;15.70;99.90
